createdAt,value
2019-03-29T00:02:02.095Z,70.80
2019-03-29T00:04:28.638Z,69.27
2019-03-29T00:06:55.297Z,66.97
2019-03-29T00:09:21.862Z,69.00
2019-03-29T00:11:48.544Z,74.90
2019-03-29T00:14:15.938Z,80.13
2019-03-29T00:16:43.167Z,71.43
2019-03-29T00:19:09.802Z,72.40
2019-03-29T00:21:36.638Z,78.70
2019-03-29T00:24:07.112Z,74.27
2019-03-29T00:26:31.838Z,70.23
2019-03-29T00:28:58.376Z,68.27
2019-03-29T00:31:25.133Z,70.37
2019-03-29T00:33:51.795Z,67.37
2019-03-29T00:36:18.590Z,77.83
2019-03-29T00:38:45.176Z,64.80
2019-03-29T00:41:11.743Z,70.13
2019-03-29T00:43:38.337Z,62.23
2019-03-29T00:46:04.951Z,69.80
2019-03-29T00:48:31.527Z,68.97
2019-03-29T00:50:59.007Z,76.00
2019-03-29T00:53:26.089Z,67.77
2019-03-29T00:55:52.662Z,77.13
2019-03-29T00:58:19.242Z,68.47
2019-03-29T01:00:46.139Z,74.37
2019-03-29T01:03:12.797Z,68.73
2019-03-29T01:05:39.547Z,74.37
2019-03-29T01:08:08.274Z,73.97
2019-03-29T01:10:36.967Z,76.57
2019-03-29T01:13:03.657Z,71.27
2019-03-29T01:15:30.242Z,85.07
2019-03-29T01:17:57.114Z,72.67
2019-03-29T01:20:23.787Z,82.20
2019-03-29T01:22:50.424Z,85.80
2019-03-29T01:25:17.050Z,79.47
2019-03-29T01:27:43.660Z,76.03
2019-03-29T01:30:12.416Z,81.73
2019-03-29T01:32:39.030Z,77.83
2019-03-29T01:35:06.939Z,79.30
2019-03-29T01:37:33.893Z,69.47
2019-03-29T01:40:00.434Z,78.47
2019-03-29T01:42:27.027Z,81.20
2019-03-29T01:44:54.771Z,73.33
2019-03-29T01:47:21.402Z,74.67
2019-03-29T01:49:48.004Z,75.87
2019-03-29T01:52:14.657Z,76.67
2019-03-29T01:54:41.302Z,67.77
2019-03-29T01:57:07.925Z,73.03
2019-03-29T01:59:34.641Z,75.47
2019-03-29T02:02:01.470Z,74.37
2019-03-29T02:04:28.039Z,72.60
2019-03-29T02:06:54.732Z,66.33
2019-03-29T02:09:21.339Z,66.47
2019-03-29T02:11:48.124Z,66.23
2019-03-29T02:14:14.784Z,71.77
2019-03-29T02:16:42.763Z,63.07
2019-03-29T02:19:09.334Z,71.10
2019-03-29T02:21:36.214Z,76.43
2019-03-29T02:24:04.185Z,88.17
2019-03-29T02:26:30.752Z,89.73
2019-03-29T02:28:57.341Z,88.73
2019-03-29T02:31:26.079Z,88.50
2019-03-29T02:33:52.485Z,78.30
2019-03-29T02:36:19.063Z,74.33
2019-03-29T02:38:54.987Z,70.43
2019-03-29T02:41:15.581Z,78.73
2019-03-29T02:43:42.507Z,71.50
2019-03-29T02:46:09.196Z,72.27
2019-03-29T02:48:36.310Z,85.43
2019-03-29T02:51:04.379Z,78.40
2019-03-29T02:53:31.355Z,77.83
2019-03-29T02:55:57.974Z,71.17
2019-03-29T02:58:24.658Z,67.07
2019-03-29T03:00:51.258Z,71.30
2019-03-29T03:03:18.003Z,74.67
2019-03-29T03:05:44.708Z,73.23
2019-03-29T03:08:11.535Z,72.00
2019-03-29T03:10:38.221Z,66.50
2019-03-29T03:13:04.922Z,63.67
2019-03-29T03:15:31.550Z,62.63
2019-03-29T03:17:58.232Z,69.70
2019-03-29T03:20:24.906Z,69.93
2019-03-29T03:22:51.620Z,67.53
2019-03-29T03:25:18.255Z,63.23
2019-03-29T03:27:44.800Z,64.97
2019-03-29T03:30:12.410Z,65.27
2019-03-29T03:32:39.258Z,61.23
2019-03-29T03:35:08.586Z,66.07
2019-03-29T03:37:36.724Z,59.27
2019-03-29T03:40:07.423Z,63.60
2019-03-29T03:42:34.167Z,62.53
2019-03-29T03:45:00.819Z,56.00
2019-03-29T03:47:27.869Z,61.57
2019-03-29T03:49:54.510Z,65.73
2019-03-29T03:52:21.448Z,65.80
2019-03-29T03:54:48.320Z,66.90
2019-03-29T03:57:18.022Z,68.03
2019-03-29T03:59:45.096Z,61.43
2019-03-29T04:02:11.792Z,67.07
2019-03-29T04:04:38.637Z,57.97
2019-03-29T04:07:05.589Z,62.00
2019-03-29T04:09:48.411Z,57.77
2019-03-29T04:12:00.943Z,61.23
2019-03-29T04:14:27.527Z,65.47
2019-03-29T04:16:54.128Z,58.83
2019-03-29T04:19:20.822Z,64.10
2019-03-29T04:21:48.677Z,65.87
2019-03-29T04:24:15.360Z,62.23
2019-03-29T04:26:41.909Z,62.80
2019-03-29T04:29:08.564Z,60.00
2019-03-29T04:31:35.318Z,59.50
2019-03-29T04:34:01.960Z,59.07
2019-03-29T04:36:28.538Z,55.47
2019-03-29T04:38:55.124Z,56.37
2019-03-29T04:41:21.673Z,57.87
2019-03-29T04:43:48.372Z,60.60
2019-03-29T04:46:15.081Z,56.93
2019-03-29T04:48:41.935Z,56.23
2019-03-29T04:51:09.202Z,58.67
2019-03-29T04:53:36.067Z,53.87
2019-03-29T04:56:02.921Z,59.93
2019-03-29T04:58:30.934Z,54.90
2019-03-29T05:00:58.315Z,60.87
2019-03-29T05:03:25.026Z,62.30
2019-03-29T05:05:51.694Z,60.37
2019-03-29T05:08:18.315Z,58.53
2019-03-29T05:10:44.901Z,54.43
2019-03-29T05:13:11.491Z,61.97
2019-03-29T05:15:38.412Z,59.27
2019-03-29T05:18:05.203Z,53.40
2019-03-29T05:20:31.881Z,50.07
2019-03-29T05:22:58.701Z,51.83
2019-03-29T05:25:25.364Z,57.77
2019-03-29T05:27:51.982Z,57.17
2019-03-29T05:30:18.568Z,58.27
2019-03-29T05:32:45.139Z,56.03
2019-03-29T05:35:11.916Z,56.60
2019-03-29T05:37:38.502Z,56.17
2019-03-29T05:40:05.428Z,59.50
2019-03-29T05:42:32.154Z,51.57
2019-03-29T05:44:58.705Z,52.50
2019-03-29T05:47:25.311Z,63.43
2019-03-29T05:49:51.890Z,63.03
2019-03-29T05:52:18.449Z,64.47
2019-03-29T05:54:45.049Z,63.57
2019-03-29T05:57:11.596Z,63.73
2019-03-29T05:59:38.484Z,57.37
2019-03-29T06:02:05.291Z,57.03
2019-03-29T06:04:31.848Z,63.67
2019-03-29T06:06:58.500Z,59.53
2019-03-29T06:09:25.078Z,62.63
2019-03-29T06:11:51.767Z,66.87
2019-03-29T06:14:18.347Z,59.73
2019-03-29T06:16:44.918Z,57.17
2019-03-29T06:19:11.583Z,53.83
2019-03-29T06:21:38.282Z,58.63
2019-03-29T06:24:04.960Z,54.67
2019-03-29T06:26:31.542Z,58.17
2019-03-29T06:28:58.174Z,52.20
2019-03-29T06:31:25.079Z,58.10
2019-03-29T06:33:51.834Z,47.50
2019-03-29T06:36:21.479Z,47.17
2019-03-29T06:38:50.227Z,44.37
2019-03-29T06:41:16.787Z,38.83
2019-03-29T06:43:43.707Z,36.90
2019-03-29T06:46:10.276Z,40.93
2019-03-29T06:48:36.847Z,54.57
2019-03-29T06:51:03.567Z,33.53
2019-03-29T06:53:30.137Z,61.87
2019-03-29T06:55:59.339Z,30.70
2019-03-29T06:58:25.216Z,30.20
2019-03-29T07:00:51.908Z,33.47
2019-03-29T07:03:19.030Z,35.43
2019-03-29T07:05:45.869Z,30.70
2019-03-29T07:08:12.412Z,32.60
2019-03-29T07:10:39.218Z,26.77
2019-03-29T07:13:05.775Z,27.80
2019-03-29T07:15:32.448Z,22.37
2019-03-29T07:17:59.018Z,37.60
2019-03-29T07:20:25.584Z,21.07
2019-03-29T07:22:52.240Z,33.67
2019-03-29T07:25:18.784Z,26.67
2019-03-29T07:27:52.085Z,22.47
2019-03-29T07:30:15.526Z,23.37
2019-03-29T07:32:42.110Z,23.40
2019-03-29T07:35:08.994Z,30.50
2019-03-29T07:37:35.797Z,54.67
2019-03-29T07:40:03.550Z,31.27
2019-03-29T07:42:30.258Z,16.53
2019-03-29T07:44:57.324Z,22.93
2019-03-29T07:47:23.915Z,21.27
2019-03-29T07:49:50.583Z,30.07
2019-03-29T07:52:17.205Z,19.27
2019-03-29T07:54:43.883Z,14.23
2019-03-29T07:57:13.462Z,32.03
2019-03-29T07:59:42.069Z,19.33
2019-03-29T08:02:08.919Z,25.40
2019-03-29T08:04:35.668Z,13.63
2019-03-29T08:07:02.238Z,10.37
2019-03-29T08:09:28.785Z,23.33
2019-03-29T08:11:55.708Z,17.53
2019-03-29T08:14:22.374Z,62.83
2019-03-29T08:16:49.206Z,28.20
2019-03-29T08:19:15.844Z,20.53
2019-03-29T08:21:42.625Z,23.67
2019-03-29T08:24:09.299Z,22.23
2019-03-29T08:26:36.143Z,30.87
2019-03-29T08:29:03.253Z,30.20
2019-03-29T08:31:29.994Z,19.40
2019-03-29T08:33:56.643Z,33.10
2019-03-29T08:36:23.480Z,31.40
2019-03-29T08:38:50.238Z,23.77
2019-03-29T08:41:16.995Z,21.57
2019-03-29T08:43:43.853Z,29.97
2019-03-29T08:46:10.784Z,21.93
2019-03-29T08:48:37.591Z,29.57
2019-03-29T08:51:04.486Z,22.97
2019-03-29T08:53:31.164Z,19.00
2019-03-29T08:55:57.715Z,21.87
2019-03-29T08:58:24.302Z,21.80
2019-03-29T09:00:51.423Z,19.27
2019-03-29T09:03:18.302Z,24.83
2019-03-29T09:05:46.026Z,18.13
2019-03-29T09:08:13.639Z,23.20
2019-03-29T09:10:40.319Z,19.83
2019-03-29T09:13:07.006Z,17.17
2019-03-29T09:15:33.763Z,24.73
2019-03-29T09:18:00.378Z,23.33
2019-03-29T09:20:27.094Z,26.80
2019-03-29T09:22:53.740Z,18.77
2019-03-29T09:25:21.168Z,23.93
2019-03-29T09:27:49.486Z,22.00
2019-03-29T09:30:16.330Z,20.87
2019-03-29T09:32:43.220Z,23.33
2019-03-29T09:35:11.923Z,17.67
2019-03-29T09:37:38.689Z,18.47
2019-03-29T09:40:06.003Z,16.97
2019-03-29T09:42:32.850Z,21.27
2019-03-29T09:44:59.465Z,26.37
2019-03-29T09:47:26.085Z,16.73
2019-03-29T09:49:52.652Z,19.77
2019-03-29T09:52:20.793Z,25.50
2019-03-29T09:54:49.253Z,25.87
2019-03-29T09:57:15.988Z,20.90
2019-03-29T09:59:42.684Z,27.03
2019-03-29T10:02:09.440Z,22.90
2019-03-29T10:04:36.112Z,22.77
2019-03-29T10:07:02.810Z,23.27
2019-03-29T10:09:29.498Z,17.33
2019-03-29T10:11:57.198Z,27.20
2019-03-29T10:14:23.884Z,22.73
2019-03-29T10:16:50.620Z,19.33
2019-03-29T10:19:17.198Z,25.97
2019-03-29T10:21:43.784Z,23.97
2019-03-29T10:24:10.343Z,23.17
2019-03-29T10:26:36.943Z,20.60
2019-03-29T10:29:03.639Z,18.57
2019-03-29T10:31:32.541Z,20.00
2019-03-29T10:33:58.834Z,25.03
2019-03-29T10:36:25.641Z,22.43
2019-03-29T10:38:52.357Z,24.50
2019-03-29T10:41:22.631Z,12.80
2019-03-29T10:43:47.617Z,14.07
2019-03-29T10:46:14.237Z,12.57
2019-03-29T10:48:40.924Z,12.23
2019-03-29T10:51:08.743Z,17.73
2019-03-29T10:53:35.445Z,16.60
2019-03-29T10:56:02.665Z,9.97
2019-03-29T10:58:29.511Z,11.33
2019-03-29T11:00:56.049Z,10.50
2019-03-29T11:03:22.745Z,14.97
2019-03-29T11:05:49.338Z,12.63
2019-03-29T11:08:16.088Z,10.27
2019-03-29T11:10:43.875Z,10.53
2019-03-29T11:13:13.912Z,9.47
2019-03-29T11:15:39.279Z,7.50
2019-03-29T11:18:06.801Z,12.93
2019-03-29T11:20:33.626Z,16.83
2019-03-29T11:23:00.620Z,15.97
2019-03-29T11:25:27.174Z,13.20
2019-03-29T11:27:55.908Z,10.57
2019-03-29T11:30:22.675Z,14.30
2019-03-29T11:32:49.420Z,13.47
2019-03-29T11:35:16.158Z,14.60
2019-03-29T11:37:42.727Z,13.27
2019-03-29T11:40:11.528Z,14.47
2019-03-29T11:42:38.272Z,16.87
2019-03-29T11:45:05.264Z,14.60
2019-03-29T11:47:31.846Z,17.30
2019-03-29T11:49:58.632Z,13.93
2019-03-29T11:52:26.832Z,15.40
2019-03-29T11:54:53.436Z,13.50
2019-03-29T11:58:16.678Z,9.90
2019-03-29T12:00:44.248Z,9.40
2019-03-29T12:03:11.417Z,12.63
2019-03-29T12:05:38.286Z,12.27
2019-03-29T12:08:05.437Z,16.17
2019-03-29T12:10:32.611Z,13.33
2019-03-29T12:12:59.560Z,11.47
2019-03-29T12:15:29.424Z,15.67
2019-03-29T12:17:56.140Z,16.90
2019-03-29T12:20:24.454Z,13.07
2019-03-29T12:22:51.209Z,19.00
2019-03-29T12:25:18.185Z,25.57
2019-03-29T12:27:44.746Z,24.67
2019-03-29T12:30:23.693Z,17.67
2019-03-29T12:32:40.721Z,29.10
2019-03-29T12:35:10.069Z,26.83
2019-03-29T12:37:36.440Z,16.57
2019-03-29T12:40:06.133Z,24.30
2019-03-29T12:42:32.866Z,27.43
2019-03-29T12:44:59.469Z,12.83
2019-03-29T12:47:26.296Z,14.23
2019-03-29T12:49:52.896Z,30.50
2019-03-29T12:52:19.714Z,27.47
2019-03-29T12:54:46.333Z,18.67
2019-03-29T12:57:13.082Z,13.00
2019-03-29T12:59:39.659Z,15.30
2019-03-29T13:02:09.129Z,14.90
2019-03-29T13:04:36.015Z,16.67
2019-03-29T13:07:03.120Z,15.97
2019-03-29T13:09:29.674Z,12.77
2019-03-29T13:11:56.500Z,14.03
2019-03-29T13:14:23.136Z,13.20
2019-03-29T13:16:49.681Z,13.27
2019-03-29T13:19:16.269Z,14.80
2019-03-29T13:21:42.840Z,21.23
2019-03-29T13:24:09.529Z,13.87
2019-03-29T13:26:36.288Z,13.37
2019-03-29T13:29:03.479Z,14.57
2019-03-29T13:31:30.054Z,17.33
2019-03-29T13:33:56.631Z,15.07
2019-03-29T13:36:23.319Z,14.47
2019-03-29T13:38:49.989Z,14.60
2019-03-29T13:41:16.657Z,19.53
2019-03-29T13:43:43.263Z,22.07
2019-03-29T13:46:09.867Z,19.97
2019-03-29T13:48:36.501Z,20.70
2019-03-29T13:51:03.363Z,16.83
2019-03-29T13:53:30.107Z,13.50
2019-03-29T13:55:57.066Z,12.83
2019-03-29T13:58:23.703Z,17.37
2019-03-29T14:00:50.406Z,15.37
2019-03-29T14:03:17.044Z,16.13
2019-03-29T14:05:45.116Z,17.27
2019-03-29T14:08:12.094Z,10.13
2019-03-29T14:10:39.124Z,13.63
2019-03-29T14:13:06.055Z,12.47
2019-03-29T14:15:32.977Z,14.10
2019-03-29T14:17:59.705Z,21.37
2019-03-29T14:20:30.362Z,17.73
2019-03-29T14:22:59.682Z,14.57
2019-03-29T14:25:26.416Z,15.13
2019-03-29T14:27:53.132Z,17.47
2019-03-29T14:30:20.046Z,20.20
2019-03-29T14:32:46.638Z,14.27
2019-03-29T14:35:13.474Z,28.40
2019-03-29T14:37:40.208Z,13.40
2019-03-29T14:40:07.879Z,15.83
2019-03-29T14:42:35.207Z,13.33
2019-03-29T14:45:05.307Z,12.97
2019-03-29T14:47:41.198Z,12.40
2019-03-29T14:50:00.569Z,25.90
2019-03-29T14:52:27.162Z,25.77
2019-03-29T14:54:53.794Z,24.07
2019-03-29T14:57:20.354Z,43.13
2019-03-29T14:59:48.166Z,53.80
2019-03-29T15:02:15.044Z,52.73
2019-03-29T15:04:41.906Z,24.73
2019-03-29T15:07:08.763Z,19.77
2019-03-29T15:09:35.654Z,24.87
2019-03-29T15:12:02.346Z,21.93
2019-03-29T15:14:28.907Z,16.90
2019-03-29T15:16:55.583Z,24.43
2019-03-29T15:19:22.944Z,21.23
2019-03-29T15:21:50.705Z,15.67
2019-03-29T15:24:19.244Z,15.53
2019-03-29T15:26:46.508Z,15.97
2019-03-29T15:29:13.318Z,18.10
2019-03-29T15:31:39.955Z,56.97
2019-03-29T15:34:06.688Z,66.17
2019-03-29T15:36:33.325Z,40.63
2019-03-29T15:38:59.876Z,68.87
2019-03-29T15:41:26.575Z,24.50
2019-03-29T15:43:53.185Z,25.17
2019-03-29T15:46:22.390Z,13.90
2019-03-29T15:48:48.981Z,20.17
2019-03-29T15:51:15.635Z,17.97
2019-03-29T15:53:42.188Z,26.97
2019-03-29T15:56:08.830Z,22.60
2019-03-29T15:58:35.519Z,25.63
2019-03-29T16:01:02.796Z,26.57
2019-03-29T16:03:29.426Z,25.83
2019-03-29T16:05:56.142Z,55.20
2019-03-29T16:08:22.890Z,38.47
2019-03-29T16:10:49.569Z,53.73
2019-03-29T16:13:16.274Z,34.87
2019-03-29T16:15:42.994Z,38.07
2019-03-29T16:18:09.709Z,26.10
2019-03-29T16:20:36.641Z,44.13
2019-03-29T16:23:03.643Z,27.70
2019-03-29T16:25:30.352Z,42.23
2019-03-29T16:27:57.297Z,24.30
2019-03-29T16:30:24.108Z,25.47
2019-03-29T16:32:50.721Z,11.97
2019-03-29T16:35:17.507Z,27.77
2019-03-29T16:37:56.641Z,28.77
2019-03-29T16:40:13.064Z,33.40
2019-03-29T16:42:39.649Z,28.20
2019-03-29T16:45:07.992Z,50.67
2019-03-29T16:47:35.106Z,34.63
2019-03-29T16:50:05.702Z,49.07
2019-03-29T16:52:32.442Z,68.43
2019-03-29T16:55:11.951Z,17.73
2019-03-29T16:57:27.691Z,21.70
2019-03-29T16:59:54.369Z,33.20
2019-03-29T17:02:21.082Z,18.70
2019-03-29T17:04:47.635Z,61.17
2019-03-29T17:07:14.382Z,42.50
2019-03-29T17:09:41.706Z,23.53
2019-03-29T17:12:08.969Z,25.07
2019-03-29T17:14:39.572Z,61.30
2019-03-29T17:17:08.977Z,34.47
2019-03-29T17:19:37.591Z,33.80
2019-03-29T17:22:05.258Z,68.80
2019-03-29T17:24:32.587Z,61.30
2019-03-29T17:27:00.238Z,40.07
2019-03-29T17:29:27.110Z,28.60
2019-03-29T17:31:53.812Z,78.87
2019-03-29T17:34:20.673Z,30.23
2019-03-29T17:36:47.232Z,59.30
2019-03-29T17:39:15.070Z,24.10
2019-03-29T17:41:41.739Z,47.50
2019-03-29T17:44:08.381Z,17.30
2019-03-29T17:46:35.557Z,46.03
2019-03-29T17:49:02.399Z,47.03
2019-03-29T17:51:29.200Z,47.60
2019-03-29T17:53:56.471Z,28.03
2019-03-29T17:56:23.155Z,35.07
2019-03-29T17:58:49.936Z,47.93
2019-03-29T18:01:17.141Z,17.63
2019-03-29T18:03:44.023Z,43.03
2019-03-29T18:06:11.082Z,37.20
2019-03-29T18:08:38.848Z,40.43
2019-03-29T18:11:05.447Z,26.77
2019-03-29T18:13:32.393Z,38.40
2019-03-29T18:15:59.098Z,22.77
2019-03-29T18:18:26.419Z,13.73
2019-03-29T18:20:53.651Z,47.67
2019-03-29T18:23:20.377Z,19.40
2019-03-29T18:25:47.140Z,18.23
2019-03-29T18:28:14.252Z,31.30
2019-03-29T18:30:41.869Z,25.27
2019-03-29T18:33:12.736Z,20.77
2019-03-29T18:35:40.117Z,39.67
2019-03-29T18:38:07.730Z,25.50
2019-03-29T18:40:35.017Z,32.47
2019-03-29T18:43:02.045Z,44.23
2019-03-29T18:45:28.847Z,31.43
2019-03-29T18:47:55.458Z,21.53
2019-03-29T18:50:22.200Z,35.87
2019-03-29T18:52:49.148Z,40.13
2019-03-29T18:55:15.998Z,28.93
2019-03-29T18:57:42.586Z,27.27
2019-03-29T19:00:12.818Z,56.03
2019-03-29T19:02:40.119Z,22.57
2019-03-29T19:05:12.662Z,33.53
2019-03-29T19:07:39.594Z,21.13
2019-03-29T19:10:06.866Z,21.30
2019-03-29T19:12:33.883Z,38.57
2019-03-29T19:15:01.281Z,25.47
2019-03-29T19:17:29.394Z,36.33
2019-03-29T19:19:56.584Z,20.10
2019-03-29T19:23:19.541Z,22.07
2019-03-29T19:25:46.135Z,55.60
2019-03-29T19:28:12.938Z,58.47
2019-03-29T19:30:58.350Z,58.63
2019-03-29T19:33:25.289Z,27.17
2019-03-29T19:35:52.262Z,39.40
2019-03-29T19:38:18.867Z,20.37
2019-03-29T19:40:46.763Z,78.27
2019-03-29T19:43:13.613Z,177.17
2019-03-29T19:45:40.297Z,25.00
2019-03-29T19:48:08.818Z,25.43
2019-03-29T19:50:35.703Z,37.37
2019-03-29T19:53:02.655Z,25.67
2019-03-29T19:55:29.229Z,25.70
2019-03-29T19:57:55.965Z,32.97
2019-03-29T20:00:29.271Z,52.03
2019-03-29T20:02:56.127Z,41.73
2019-03-29T20:05:26.308Z,27.57
2019-03-29T20:07:55.694Z,28.93
2019-03-29T20:10:24.651Z,28.57
2019-03-29T20:12:51.872Z,28.47
2019-03-29T20:15:18.856Z,29.83
2019-03-29T20:17:45.497Z,31.83
2019-03-29T20:20:17.827Z,29.87
2019-03-29T20:22:45.523Z,28.13
2019-03-29T20:25:12.308Z,34.00
2019-03-29T20:27:38.935Z,47.43
2019-03-29T20:30:06.407Z,40.43
2019-03-29T20:32:36.449Z,60.17
2019-03-29T20:35:04.959Z,67.90
2019-03-29T20:37:33.751Z,96.40
2019-03-29T20:40:00.584Z,46.90
2019-03-29T20:42:29.638Z,32.87
2019-03-29T20:44:56.700Z,25.93
2019-03-29T20:47:23.408Z,52.47
2019-03-29T20:49:50.046Z,29.07
2019-03-29T20:52:16.603Z,31.60
2019-03-29T20:54:43.186Z,34.90
2019-03-29T20:57:09.789Z,53.97
2019-03-29T20:59:36.519Z,54.93
2019-03-29T21:02:06.249Z,46.50
2019-03-29T21:04:33.274Z,42.87
2019-03-29T21:07:00.134Z,67.07
2019-03-29T21:09:26.733Z,46.97
2019-03-29T21:11:53.460Z,32.70
2019-03-29T21:14:20.311Z,69.33
2019-03-29T21:16:47.352Z,70.10
2019-03-29T21:19:14.263Z,74.10
2019-03-29T21:21:41.090Z,34.03
2019-03-29T21:24:07.721Z,41.23
2019-03-29T21:26:34.545Z,76.17
2019-03-29T21:29:01.606Z,31.90
2019-03-29T21:31:28.354Z,28.17
2019-03-29T21:33:54.966Z,30.87
2019-03-29T21:36:21.523Z,33.43
2019-03-29T21:38:48.110Z,27.87
2019-03-29T21:41:14.890Z,31.57
2019-03-29T21:43:41.458Z,32.70
2019-03-29T21:46:08.118Z,34.87
2019-03-29T21:48:34.813Z,27.50
2019-03-29T21:51:01.396Z,28.87
2019-03-29T21:53:29.308Z,33.10
2019-03-29T21:55:56.032Z,28.53
2019-03-29T21:58:22.863Z,27.50
2019-03-29T22:00:49.447Z,26.47
2019-03-29T22:03:16.196Z,27.23
2019-03-29T22:05:42.867Z,26.20
2019-03-29T22:08:09.769Z,25.63
2019-03-29T22:10:36.627Z,36.07
2019-03-29T22:13:03.555Z,28.77
2019-03-29T22:15:31.628Z,30.27
2019-03-29T22:17:58.506Z,35.83
2019-03-29T22:20:25.382Z,34.07
2019-03-29T22:22:51.999Z,30.47
2019-03-29T22:25:18.798Z,27.60
2019-03-29T22:27:45.608Z,25.37
2019-03-29T22:30:13.120Z,25.63
2019-03-29T22:32:39.819Z,36.60
2019-03-29T22:35:06.976Z,25.83
2019-03-29T22:37:34.015Z,31.70
2019-03-29T22:40:00.859Z,27.57
2019-03-29T22:42:27.859Z,21.97
2019-03-29T22:44:54.404Z,29.23
2019-03-29T22:47:21.030Z,24.63
2019-03-29T22:49:47.871Z,26.77
2019-03-29T22:52:14.424Z,24.73
2019-03-29T22:54:41.345Z,30.07
2019-03-29T22:57:08.239Z,25.47
2019-03-29T22:59:35.089Z,22.07
2019-03-29T23:02:02.197Z,24.90
2019-03-29T23:04:28.775Z,22.30
2019-03-29T23:06:55.368Z,22.40
2019-03-29T23:09:21.963Z,22.57
2019-03-29T23:11:48.650Z,31.60
2019-03-29T23:14:15.333Z,21.60
2019-03-29T23:16:44.708Z,37.97
2019-03-29T23:19:13.220Z,25.27
2019-03-29T23:21:39.871Z,24.83
2019-03-29T23:24:06.432Z,20.67
2019-03-29T23:26:34.243Z,20.20
2019-03-29T23:29:00.937Z,22.63
2019-03-29T23:31:27.547Z,19.70
2019-03-29T23:33:54.205Z,19.63
2019-03-29T23:36:21.033Z,23.30
2019-03-29T23:38:47.634Z,24.97
2019-03-29T23:41:14.278Z,21.07
2019-03-29T23:43:40.931Z,21.93
2019-03-29T23:46:07.562Z,22.43
2019-03-29T23:48:34.132Z,21.80
2019-03-29T23:51:00.713Z,30.60
2019-03-29T23:53:27.503Z,23.33
2019-03-29T23:55:54.324Z,32.50
2019-03-29T23:58:23.392Z,29.40
